Aérodrome :
LOGIN :

S'inscrire | Disclaimer

   EN    FR    IT 

 










Légende :    VFR   VFR Marginal   IFR   IFR Intensif   IFR Très Intensif
Visi : 
Plafond : 
>= 8 km
>= 3000ft
5 à 8 km
1000 à 3000 ft
1500m à 5 km
500 à 1000 ft
800 à 1500m
200 à 500 ft
< 800m
< 200 ft
Symboles :   Orages  Brouillard  Fortes neiges  Fortes précipitations  Vent > 20 kt
SIGMETs :   Divers  Orages  Givrage  Turbulence  Onde Orograph.  Cendres Volcan.







- Altitude de l'aérodrome : 915 ft
- Code IATA : LUG


LSZA - Lugano

DERNIER METAR :
  • 271250Z 19008KT 6000 -RA SCT014 SCT025 BKN030 16/14 Q1010 NOSIG

METARs EXPIRÉS :
  • 271220Z 19006KT 5000 -RA SCT013 BKN023 BKN028 17/15 Q1010 NOSIG
  • 271150Z 19007KT 150V220 6000 -RA SCT020 BKN070 OVC090 18/14 Q1010 NOSIG
  • 271120Z 19006KT 9000 VCSH SCT020 SCT030 OVC100 19/14 Q1010 TEMPO SHRA
  • 271050Z 19006KT 9999 FEW025 SCT035 OVC090 18/14 Q1010 NOSIG
  • 271020Z 20006KT 9999 FEW025 OVC100 19/14 Q1010 NOSIG

TAF TAF LSZA
Valide du 27 à 12h jusqu'au 27 à 21h UTC


271125Z 2712/2721 19006KT 9000 SCT020 SCT030 OVC100
TEMPO 2712/2721 SHRA SCT030TCU
ATIS : +41 22 417 40 88
Pas de NOTAMs connus pour ce terrain.



MET'MAP, la Météo Aéronautique d'un coup d'oeil ! - Copyright ORBIFLY Décembre 2007 - Disclaimer

ORBIFLY MET'MAP TEAM :

Programmation & Développement : Alexandra Zaïnal
Conception & Développement : Baudouin d'Aumeries
Co-Programmation & Développement : Marc-Olivier Méhu
Soutien technique & logistique : Manuel Goepfert

Contact : metmap@orbifly.com




SOURCES & CREDITS :

   NOAA